sensor_id;sensor_type;location;lat;lon;timestamp;pressure;altitude;pressure_sealevel;temperature;humidity
83027;BME280;72842;56.038;12.706;2024-01-30T00:01:22;102613.94;;;9.03;60.73
83027;BME280;72842;56.038;12.706;2024-01-30T00:03:47;102606.84;;;9.02;60.88
83027;BME280;72842;56.038;12.706;2024-01-30T00:06:13;102599.78;;;9.01;60.86
83027;BME280;72842;56.038;12.706;2024-01-30T00:08:38;102614.00;;;9.02;60.94
83027;BME280;72842;56.038;12.706;2024-01-30T00:11:03;102610.47;;;9.01;61.35
83027;BME280;72842;56.038;12.706;2024-01-30T00:13:29;102613.13;;;9.01;60.86
83027;BME280;72842;56.038;12.706;2024-01-30T00:15:54;102609.59;;;9.01;60.97
83027;BME280;72842;56.038;12.706;2024-01-30T00:18:20;102615.00;;;8.99;60.99
83027;BME280;72842;56.038;12.706;2024-01-30T00:20:45;102615.00;;;8.99;60.81
83027;BME280;72842;56.038;12.706;2024-01-30T00:23:11;102613.38;;;8.95;60.98
83027;BME280;72842;56.038;12.706;2024-01-30T00:25:36;102623.88;;;9.00;61.03
83027;BME280;72842;56.038;12.706;2024-01-30T00:28:02;102631.91;;;9.00;60.89
83027;BME280;72842;56.038;12.706;2024-01-30T00:30:27;102623.91;;;8.98;61.04
83027;BME280;72842;56.038;12.706;2024-01-30T00:32:53;102616.78;;;8.99;60.84
83027;BME280;72842;56.038;12.706;2024-01-30T00:35:19;102611.50;;;8.97;60.83
83027;BME280;72842;56.038;12.706;2024-01-30T00:37:44;102606.25;;;8.96;61.08
83027;BME280;72842;56.038;12.706;2024-01-30T00:40:10;102602.88;;;8.90;60.80
83027;BME280;72842;56.038;12.706;2024-01-30T00:42:43;102615.97;;;8.97;61.30
83027;BME280;72842;56.038;12.706;2024-01-30T00:45:15;102618.66;;;8.97;60.91
83027;BME280;72842;56.038;12.706;2024-01-30T00:47:41;102611.50;;;8.97;61.13
83027;BME280;72842;56.038;12.706;2024-01-30T00:50:07;102616.06;;;8.95;60.91
83027;BME280;72842;56.038;12.706;2024-01-30T00:52:32;102623.13;;;8.96;60.98
83027;BME280;72842;56.038;12.706;2024-01-30T00:55:01;102630.19;;;8.97;61.09
83027;BME280;72842;56.038;12.706;2024-01-30T00:57:28;102624.94;;;8.96;60.46
83027;BME280;72842;56.038;12.706;2024-01-30T00:59:53;102616.06;;;8.95;60.84
83027;BME280;72842;56.038;12.706;2024-01-30T01:02:18;102609.84;;;8.95;60.70
83027;BME280;72842;56.038;12.706;2024-01-30T01:04:44;102613.44;;;8.94;60.77
83027;BME280;72842;56.038;12.706;2024-01-30T01:07:10;102616.06;;;8.95;60.88
83027;BME280;72842;56.038;12.706;2024-01-30T01:09:36;102615.25;;;8.93;60.83
83027;BME280;72842;56.038;12.706;2024-01-30T01:12:02;102626.72;;;8.95;60.77
83027;BME280;72842;56.038;12.706;2024-01-30T01:14:27;102628.53;;;8.95;60.92
83027;BME280;72842;56.038;12.706;2024-01-30T01:16:53;102626.72;;;8.95;60.87
83027;BME280;72842;56.038;12.706;2024-01-30T01:19:18;102619.72;;;8.93;60.89
83027;BME280;72842;56.038;12.706;2024-01-30T01:21:44;102628.59;;;8.93;61.01
83027;BME280;72842;56.038;12.706;2024-01-30T01:24:09;102637.41;;;8.95;60.96
83027;BME280;72842;56.038;12.706;2024-01-30T01:26:34;102633.88;;;8.95;60.82
83027;BME280;72842;56.038;12.706;2024-01-30T01:29:00;102640.16;;;8.94;60.89
83027;BME280;72842;56.038;12.706;2024-01-30T01:31:25;102644.66;;;8.91;60.92
83027;BME280;72842;56.038;12.706;2024-01-30T01:33:54;102625.94;;;8.93;60.76
83027;BME280;72842;56.038;12.706;2024-01-30T01:36:20;102634.81;;;8.94;61.23
83027;BME280;72842;56.038;12.706;2024-01-30T01:38:45;102638.41;;;8.93;61.39
83027;BME280;72842;56.038;12.706;2024-01-30T01:41:11;102642.84;;;8.92;61.17
83027;BME280;72842;56.038;12.706;2024-01-30T01:43:36;102650.88;;;8.92;61.50
83027;BME280;72842;56.038;12.706;2024-01-30T01:46:04;102642.84;;;8.92;61.28
83027;BME280;72842;56.038;12.706;2024-01-30T01:48:30;102648.19;;;8.92;61.16
83027;BME280;72842;56.038;12.706;2024-01-30T01:50:55;102639.31;;;8.91;61.37
83027;BME280;72842;56.038;12.706;2024-01-30T01:53:21;102650.88;;;8.92;61.54
83027;BME280;72842;56.038;12.706;2024-01-30T01:55:47;102650.88;;;8.92;61.42
83027;BME280;72842;56.038;12.706;2024-01-30T01:58:14;102661.56;;;8.92;61.43
83027;BME280;72842;56.038;12.706;2024-01-30T02:00:40;102644.66;;;8.91;61.60
83027;BME280;72842;56.038;12.706;2024-01-30T02:03:09;102637.59;;;8.90;61.73
83027;BME280;72842;56.038;12.706;2024-01-30T02:05:36;102624.31;;;8.89;61.92
83027;BME280;72842;56.038;12.706;2024-01-30T02:08:01;102636.72;;;8.90;61.55
83027;BME280;72842;56.038;12.706;2024-01-30T02:10:28;102639.41;;;8.90;61.91
83027;BME280;72842;56.038;12.706;2024-01-30T02:12:53;102642.06;;;8.90;61.94
83027;BME280;72842;56.038;12.706;2024-01-30T02:15:19;102621.88;;;8.83;62.12
83027;BME280;72842;56.038;12.706;2024-01-30T02:17:44;102643.06;;;8.87;61.84
83027;BME280;72842;56.038;12.706;2024-01-30T02:20:10;102634.47;;;8.79;61.69
83027;BME280;72842;56.038;12.706;2024-01-30T02:22:36;102641.38;;;8.85;62.16
83027;BME280;72842;56.038;12.706;2024-01-30T02:25:02;102649.28;;;8.88;62.20
83027;BME280;72842;56.038;12.706;2024-01-30T02:27:28;102643.06;;;8.87;62.15
83027;BME280;72842;56.038;12.706;2024-01-30T02:29:53;102643.06;;;8.87;62.26
83027;BME280;72842;56.038;12.706;2024-01-30T02:32:19;102635.09;;;8.86;62.05
83027;BME280;72842;56.038;12.706;2024-01-30T02:34:44;102623.75;;;8.81;62.32
83027;BME280;72842;56.038;12.706;2024-01-30T02:37:10;102630.75;;;8.83;62.29
83027;BME280;72842;56.038;12.706;2024-01-30T02:39:35;102629.91;;;8.83;62.25
83027;BME280;72842;56.038;12.706;2024-01-30T02:42:01;102625.34;;;8.85;62.15
83027;BME280;72842;56.038;12.706;2024-01-30T02:44:26;102623.63;;;8.84;62.14
83027;BME280;72842;56.038;12.706;2024-01-30T02:46:51;102621.09;;;8.81;62.58
83027;BME280;72842;56.038;12.706;2024-01-30T02:49:19;102614.75;;;8.83;62.46
83027;BME280;72842;56.038;12.706;2024-01-30T02:51:44;102620.94;;;8.84;62.51
83027;BME280;72842;56.038;12.706;2024-01-30T02:54:10;102620.09;;;8.83;62.42
83027;BME280;72842;56.038;12.706;2024-01-30T02:56:35;102613.88;;;8.83;62.21
83027;BME280;72842;56.038;12.706;2024-01-30T02:59:01;102609.59;;;8.79;62.69
83027;BME280;72842;56.038;12.706;2024-01-30T03:01:26;102614.75;;;8.83;62.30
83027;BME280;72842;56.038;12.706;2024-01-30T03:03:52;102617.41;;;8.83;62.73
83027;BME280;72842;56.038;12.706;2024-01-30T03:06:17;102607.75;;;8.81;62.63
83027;BME280;72842;56.038;12.706;2024-01-30T03:08:45;102603.19;;;8.83;62.50
83027;BME280;72842;56.038;12.706;2024-01-30T03:11:10;102610.34;;;8.82;63.06
83027;BME280;72842;56.038;12.706;2024-01-30T03:13:36;102603.19;;;8.83;62.81
83027;BME280;72842;56.038;12.706;2024-01-30T03:16:01;102605.88;;;8.83;62.92
83027;BME280;72842;56.038;12.706;2024-01-30T03:18:27;102605.97;;;8.80;62.69
83027;BME280;72842;56.038;12.706;2024-01-30T03:20:52;102600.59;;;8.81;62.81
83027;BME280;72842;56.038;12.706;2024-01-30T03:23:17;102606.81;;;8.82;62.92
83027;BME280;72842;56.038;12.706;2024-01-30T03:25:43;102617.47;;;8.82;63.00
83027;BME280;72842;56.038;12.706;2024-01-30T03:28:08;102606.91;;;8.79;62.79
83027;BME280;72842;56.038;12.706;2024-01-30T03:30:34;102610.41;;;8.81;62.62
83027;BME280;72842;56.038;12.706;2024-01-30T03:32:59;102611.28;;;8.81;63.06
83027;BME280;72842;56.038;12.706;2024-01-30T03:35:25;102613.09;;;8.81;63.17
83027;BME280;72842;56.038;12.706;2024-01-30T03:37:50;102611.31;;;8.80;62.78
83027;BME280;72842;56.038;12.706;2024-01-30T03:40:16;102601.81;;;8.73;63.24
83027;BME280;72842;56.038;12.706;2024-01-30T03:42:41;102600.72;;;8.78;63.21
83027;BME280;72842;56.038;12.706;2024-01-30T03:45:07;102596.38;;;8.76;62.93
83027;BME280;72842;56.038;12.706;2024-01-30T03:47:33;102604.31;;;8.77;63.37
83027;BME280;72842;56.038;12.706;2024-01-30T03:49:58;102599.72;;;8.81;63.12
83027;BME280;72842;56.038;12.706;2024-01-30T03:52:23;102585.56;;;8.79;63.11
83027;BME280;72842;56.038;12.706;2024-01-30T03:54:49;102581.16;;;8.78;62.94
83027;BME280;72842;56.038;12.706;2024-01-30T03:57:14;102584.75;;;8.77;63.11
83027;BME280;72842;56.038;12.706;2024-01-30T03:59:42;102601.56;;;8.79;63.10
83027;BME280;72842;56.038;12.706;2024-01-30T04:02:07;102600.72;;;8.78;63.30
83027;BME280;72842;56.038;12.706;2024-01-30T04:04:33;102605.19;;;8.78;63.36
83027;BME280;72842;56.038;12.706;2024-01-30T04:06:58;102598.09;;;8.77;63.03
83027;BME280;72842;56.038;12.706;2024-01-30T04:09:23;102611.38;;;8.78;63.25
83027;BME280;72842;56.038;12.706;2024-01-30T04:11:51;102606.13;;;8.77;63.56
83027;BME280;72842;56.038;12.706;2024-01-30T04:14:16;102592.91;;;8.74;63.55
83027;BME280;72842;56.038;12.706;2024-01-30T04:16:42;102592.78;;;8.77;63.61
83027;BME280;72842;56.038;12.706;2024-01-30T04:19:08;102580.28;;;8.77;63.42
83027;BME280;72842;56.038;12.706;2024-01-30T04:21:33;102575.13;;;8.73;63.27
83027;BME280;72842;56.038;12.706;2024-01-30T04:23:58;102594.56;;;8.76;63.30
83027;BME280;72842;56.038;12.706;2024-01-30T04:26:24;102590.09;;;8.77;63.33
83027;BME280;72842;56.038;12.706;2024-01-30T04:28:49;102601.72;;;8.76;63.32
83027;BME280;72842;56.038;12.706;2024-01-30T04:31:15;102596.38;;;8.76;63.46
83027;BME280;72842;56.038;12.706;2024-01-30T04:33:40;102579.59;;;8.72;63.62
83027;BME280;72842;56.038;12.706;2024-01-30T04:36:08;102585.69;;;8.76;63.70
83027;BME280;72842;56.038;12.706;2024-01-30T04:38:35;102585.69;;;8.76;63.74
83027;BME280;72842;56.038;12.706;2024-01-30T04:41:00;102580.44;;;8.74;63.45
83027;BME280;72842;56.038;12.706;2024-01-30T04:43:26;102585.75;;;8.74;63.92
83027;BME280;72842;56.038;12.706;2024-01-30T04:45:52;102597.25;;;8.76;63.81
83027;BME280;72842;56.038;12.706;2024-01-30T04:48:18;102594.66;;;8.75;63.95
83027;BME280;72842;56.038;12.706;2024-01-30T04:50:43;102583.97;;;8.75;63.87
83027;BME280;72842;56.038;12.706;2024-01-30T04:53:09;102594.66;;;8.75;63.52
83027;BME280;72842;56.038;12.706;2024-01-30T04:55:35;102590.25;;;8.74;63.95
83027;BME280;72842;56.038;12.706;2024-01-30T04:58:00;102593.78;;;8.74;63.61
83027;BME280;72842;56.038;12.706;2024-01-30T05:00:26;102589.31;;;8.75;63.68
83027;BME280;72842;56.038;12.706;2024-01-30T05:02:51;102595.56;;;8.74;64.12
83027;BME280;72842;56.038;12.706;2024-01-30T05:05:17;102561.66;;;8.54;63.89
83027;BME280;72842;56.038;12.706;2024-01-30T05:07:42;102577.75;;;8.74;63.52
83027;BME280;72842;56.038;12.706;2024-01-30T05:10:08;102590.25;;;8.74;63.97
83027;BME280;72842;56.038;12.706;2024-01-30T05:12:34;102595.56;;;8.74;63.69
83027;BME280;72842;56.038;12.706;2024-01-30T05:14:59;102586.66;;;8.73;64.26
83027;BME280;72842;56.038;12.706;2024-01-30T05:17:25;102597.34;;;8.73;64.10
83027;BME280;72842;56.038;12.706;2024-01-30T05:19:50;102587.81;;;8.68;63.98
83027;BME280;72842;56.038;12.706;2024-01-30T05:22:16;102586.66;;;8.73;63.88
83027;BME280;72842;56.038;12.706;2024-01-30T05:24:43;102583.13;;;8.73;63.89
83027;BME280;72842;56.038;12.706;2024-01-30T05:27:08;102579.66;;;8.71;63.92
83027;BME280;72842;56.038;12.706;2024-01-30T05:29:34;102582.34;;;8.71;64.02
83027;BME280;72842;56.038;12.706;2024-01-30T05:31:59;102587.69;;;8.71;64.19
83027;BME280;72842;56.038;12.706;2024-01-30T05:34:24;102582.34;;;8.71;64.34
83027;BME280;72842;56.038;12.706;2024-01-30T05:36:50;102572.03;;;8.61;63.81
83027;BME280;72842;56.038;12.706;2024-01-30T05:39:15;102576.25;;;8.67;63.83
83027;BME280;72842;56.038;12.706;2024-01-30T05:41:41;102562.16;;;8.63;64.42
83027;BME280;72842;56.038;12.706;2024-01-30T05:44:06;102570.00;;;8.68;64.33
83027;BME280;72842;56.038;12.706;2024-01-30T05:46:32;102568.22;;;8.67;64.49
83027;BME280;72842;56.038;12.706;2024-01-30T05:48:58;102574.47;;;8.68;64.42
83027;BME280;72842;56.038;12.706;2024-01-30T05:51:24;102571.84;;;8.66;64.19
83027;BME280;72842;56.038;12.706;2024-01-30T05:53:49;102573.56;;;8.67;64.43
83027;BME280;72842;56.038;12.706;2024-01-30T05:56:15;102570.03;;;8.67;64.18
83027;BME280;72842;56.038;12.706;2024-01-30T05:58:40;102570.91;;;8.67;64.23
83027;BME280;72842;56.038;12.706;2024-01-30T06:01:09;102563.84;;;8.66;64.55
83027;BME280;72842;56.038;12.706;2024-01-30T06:03:34;102562.97;;;8.65;64.39
83027;BME280;72842;56.038;12.706;2024-01-30T06:06:00;102565.63;;;8.65;64.64
83027;BME280;72842;56.038;12.706;2024-01-30T06:08:25;102556.84;;;8.63;64.82
83027;BME280;72842;56.038;12.706;2024-01-30T06:10:51;102561.31;;;8.63;64.69
83027;BME280;72842;56.038;12.706;2024-01-30T06:13:17;102523.00;;;8.42;64.38
83027;BME280;72842;56.038;12.706;2024-01-30T06:15:43;102561.38;;;8.61;64.82
83027;BME280;72842;56.038;12.706;2024-01-30T06:18:08;102542.94;;;8.55;64.96
83027;BME280;72842;56.038;12.706;2024-01-30T06:20:34;102551.56;;;8.62;64.80
83027;BME280;72842;56.038;12.706;2024-01-30T06:22:59;102549.75;;;8.62;64.92
83027;BME280;72842;56.038;12.706;2024-01-30T06:25:25;102545.38;;;8.61;64.97
83027;BME280;72842;56.038;12.706;2024-01-30T06:27:50;102552.47;;;8.61;64.65
83027;BME280;72842;56.038;12.706;2024-01-30T06:30:15;102551.59;;;8.60;64.95
83027;BME280;72842;56.038;12.706;2024-01-30T06:32:41;102551.75;;;8.57;65.23
83027;BME280;72842;56.038;12.706;2024-01-30T06:35:07;102558.81;;;8.58;65.03
83027;BME280;72842;56.038;12.706;2024-01-30T06:37:33;102561.41;;;8.60;65.22
83027;BME280;72842;56.038;12.706;2024-01-30T06:39:58;102568.56;;;8.59;65.29
83027;BME280;72842;56.038;12.706;2024-01-30T06:42:24;102567.69;;;8.59;64.77
83027;BME280;72842;56.038;12.706;2024-01-30T06:44:49;102571.28;;;8.58;64.79
83027;BME280;72842;56.038;12.706;2024-01-30T06:47:14;102569.56;;;8.57;65.01
83027;BME280;72842;56.038;12.706;2024-01-30T06:49:40;102546.09;;;8.43;65.19
83027;BME280;72842;56.038;12.706;2024-01-30T06:52:07;102570.41;;;8.57;65.46
83027;BME280;72842;56.038;12.706;2024-01-30T06:54:33;102574.81;;;8.58;64.86
83027;BME280;72842;56.038;12.706;2024-01-30T06:56:59;102578.44;;;8.57;65.13
83027;BME280;72842;56.038;12.706;2024-01-30T06:59:24;102573.09;;;8.57;65.53
83027;BME280;72842;56.038;12.706;2024-01-30T07:01:50;102575.75;;;8.57;65.08
83027;BME280;72842;56.038;12.706;2024-01-30T07:04:15;102568.69;;;8.56;65.06
83027;BME280;72842;56.038;12.706;2024-01-30T07:06:41;102567.00;;;8.54;65.32
83027;BME280;72842;56.038;12.706;2024-01-30T07:09:07;102569.63;;;8.55;65.64
83027;BME280;72842;56.038;12.706;2024-01-30T07:11:33;102566.09;;;8.55;65.50
83027;BME280;72842;56.038;12.706;2024-01-30T07:13:59;102559.84;;;8.54;65.74
83027;BME280;72842;56.038;12.706;2024-01-30T07:16:24;102558.13;;;8.53;65.47
83027;BME280;72842;56.038;12.706;2024-01-30T07:18:50;102557.19;;;8.54;65.46
83027;BME280;72842;56.038;12.706;2024-01-30T07:21:15;102550.13;;;8.53;65.20
83027;BME280;72842;56.038;12.706;2024-01-30T07:23:41;102550.97;;;8.54;65.76
83027;BME280;72842;56.038;12.706;2024-01-30T07:26:07;102545.66;;;8.54;65.29
83027;BME280;72842;56.038;12.706;2024-01-30T07:28:34;102545.72;;;8.52;65.66
83027;BME280;72842;56.038;12.706;2024-01-30T07:31:03;102538.56;;;8.53;65.71
83027;BME280;72842;56.038;12.706;2024-01-30T07:33:28;102542.09;;;8.53;65.69
83027;BME280;72842;56.038;12.706;2024-01-30T07:35:54;102534.97;;;8.54;65.41
83027;BME280;72842;56.038;12.706;2024-01-30T07:38:19;102521.88;;;8.48;65.32
83027;BME280;72842;56.038;12.706;2024-01-30T07:40:45;102500.13;;;8.35;65.73
83027;BME280;72842;56.038;12.706;2024-01-30T07:43:11;102535.91;;;8.53;65.95
83027;BME280;72842;56.038;12.706;2024-01-30T07:45:37;102542.09;;;8.53;65.64
83027;BME280;72842;56.038;12.706;2024-01-30T07:48:05;102538.56;;;8.53;65.96
83027;BME280;72842;56.038;12.706;2024-01-30T07:50:30;102537.72;;;8.52;65.70
83027;BME280;72842;56.038;12.706;2024-01-30T07:52:56;102536.78;;;8.53;65.64
83027;BME280;72842;56.038;12.706;2024-01-30T07:55:22;102536.78;;;8.53;65.39
83027;BME280;72842;56.038;12.706;2024-01-30T07:57:52;102533.16;;;8.54;66.00
83027;BME280;72842;56.038;12.706;2024-01-30T08:00:18;102521.88;;;8.48;65.69
83027;BME280;72842;56.038;12.706;2024-01-30T08:02:44;102529.84;;;8.49;65.85
83027;BME280;72842;56.038;12.706;2024-01-30T08:05:10;102530.63;;;8.51;65.88
83027;BME280;72842;56.038;12.706;2024-01-30T08:07:36;102527.91;;;8.53;65.71
83027;BME280;72842;56.038;12.706;2024-01-30T08:10:02;102525.38;;;8.50;65.96
83027;BME280;72842;56.038;12.706;2024-01-30T08:12:27;102527.97;;;8.51;66.24
83027;BME280;72842;56.038;12.706;2024-01-30T08:14:53;102516.59;;;8.46;66.41
83027;BME280;72842;56.038;12.706;2024-01-30T08:17:18;102527.97;;;8.51;66.13
83027;BME280;72842;56.038;12.706;2024-01-30T08:19:44;102525.31;;;8.51;66.11
83027;BME280;72842;56.038;12.706;2024-01-30T08:22:09;102519.97;;;8.51;65.91
83027;BME280;72842;56.038;12.706;2024-01-30T08:24:34;102517.31;;;8.51;66.49
83027;BME280;72842;56.038;12.706;2024-01-30T08:27:00;102511.16;;;8.49;66.22
83027;BME280;72842;56.038;12.706;2024-01-30T08:29:27;102521.78;;;8.51;66.71
83027;BME280;72842;56.038;12.706;2024-01-30T08:31:53;102517.31;;;8.51;66.51
83027;BME280;72842;56.038;12.706;2024-01-30T08:34:20;102515.56;;;8.50;66.22
83027;BME280;72842;56.038;12.706;2024-01-30T08:36:46;102470.94;;;8.32;66.07
83027;BME280;72842;56.038;12.706;2024-01-30T08:39:11;102483.03;;;8.41;66.72
83027;BME280;72842;56.038;12.706;2024-01-30T08:41:37;102504.91;;;8.50;66.35
83027;BME280;72842;56.038;12.706;2024-01-30T08:44:02;102504.91;;;8.50;66.35
83027;BME280;72842;56.038;12.706;2024-01-30T08:46:29;102511.09;;;8.51;66.79
83027;BME280;72842;56.038;12.706;2024-01-30T08:48:55;102512.91;;;8.50;66.83
83027;BME280;72842;56.038;12.706;2024-01-30T08:51:21;102507.66;;;8.47;67.04
83027;BME280;72842;56.038;12.706;2024-01-30T08:53:47;102497.16;;;8.44;66.49
83027;BME280;72842;56.038;12.706;2024-01-30T08:56:12;102506.69;;;8.50;66.86
83027;BME280;72842;56.038;12.706;2024-01-30T08:58:38;102504.91;;;8.50;67.03
83027;BME280;72842;56.038;12.706;2024-01-30T09:01:04;102494.28;;;8.49;66.75
83027;BME280;72842;56.038;12.706;2024-01-30T09:03:30;102492.53;;;8.48;66.74
83027;BME280;72842;56.038;12.706;2024-01-30T09:05:56;102480.19;;;8.45;66.76
83027;BME280;72842;56.038;12.706;2024-01-30T09:08:21;102489.81;;;8.49;66.76
83027;BME280;72842;56.038;12.706;2024-01-30T09:10:47;102493.41;;;8.48;66.83
83027;BME280;72842;56.038;12.706;2024-01-30T09:13:13;102476.47;;;8.49;66.72
83027;BME280;72842;56.038;12.706;2024-01-30T09:15:38;102476.47;;;8.49;66.92
83027;BME280;72842;56.038;12.706;2024-01-30T09:18:04;102480.97;;;8.49;66.95
83027;BME280;72842;56.038;12.706;2024-01-30T09:20:29;102481.81;;;8.49;66.97
83027;BME280;72842;56.038;12.706;2024-01-30T09:22:55;102480.00;;;8.50;67.25
83027;BME280;72842;56.038;12.706;2024-01-30T09:25:20;102486.22;;;8.50;67.46
83027;BME280;72842;56.038;12.706;2024-01-30T09:27:46;102487.09;;;8.51;67.38
83027;BME280;72842;56.038;12.706;2024-01-30T09:30:12;102470.66;;;8.40;67.42
83027;BME280;72842;56.038;12.706;2024-01-30T09:32:39;102490.63;;;8.51;67.46
83027;BME280;72842;56.038;12.706;2024-01-30T09:35:05;102478.22;;;8.50;67.35
83027;BME280;72842;56.038;12.706;2024-01-30T09:37:31;102471.94;;;8.51;67.41
83027;BME280;72842;56.038;12.706;2024-01-30T09:39:56;102469.28;;;8.51;67.63
83027;BME280;72842;56.038;12.706;2024-01-30T09:42:35;102462.47;;;8.44;68.03
83027;BME280;72842;56.038;12.706;2024-01-30T09:45:04;102441.44;;;8.35;67.58
83027;BME280;72842;56.038;12.706;2024-01-30T09:47:40;102465.75;;;8.51;67.31
83027;BME280;72842;56.038;12.706;2024-01-30T09:50:08;102473.69;;;8.52;67.88
83027;BME280;72842;56.038;12.706;2024-01-30T09:52:34;102468.34;;;8.52;67.89
83027;BME280;72842;56.038;12.706;2024-01-30T09:55:00;102469.19;;;8.53;67.68
83027;BME280;72842;56.038;12.706;2024-01-30T09:57:26;102463.78;;;8.54;68.05
83027;BME280;72842;56.038;12.706;2024-01-30T09:59:52;102429.75;;;8.39;67.96
83027;BME280;72842;56.038;12.706;2024-01-30T10:02:22;102465.56;;;8.55;67.97
83027;BME280;72842;56.038;12.706;2024-01-30T10:04:51;102463.75;;;8.56;68.17
83027;BME280;72842;56.038;12.706;2024-01-30T10:07:18;102466.47;;;8.54;67.99
83027;BME280;72842;56.038;12.706;2024-01-30T10:09:43;102459.47;;;8.52;68.19
83027;BME280;72842;56.038;12.706;2024-01-30T10:12:09;102457.56;;;8.55;68.55
83027;BME280;72842;56.038;12.706;2024-01-30T10:14:42;102453.25;;;8.51;68.04
83027;BME280;72842;56.038;12.706;2024-01-30T10:17:08;102458.47;;;8.54;68.73
83027;BME280;72842;56.038;12.706;2024-01-30T10:19:35;102454.94;;;8.54;68.21
83027;BME280;72842;56.038;12.706;2024-01-30T10:22:00;102459.28;;;8.56;68.68
83027;BME280;72842;56.038;12.706;2024-01-30T10:24:26;102454.06;;;8.53;68.55
83027;BME280;72842;56.038;12.706;2024-01-30T10:26:53;102456.63;;;8.56;68.43
83027;BME280;72842;56.038;12.706;2024-01-30T10:29:18;102463.75;;;8.56;68.38
83027;BME280;72842;56.038;12.706;2024-01-30T10:31:44;102467.28;;;8.56;68.51
83027;BME280;72842;56.038;12.706;2024-01-30T10:34:09;102458.41;;;8.56;68.42
83027;BME280;72842;56.038;12.706;2024-01-30T10:36:40;102457.56;;;8.55;68.53
83027;BME280;72842;56.038;12.706;2024-01-30T10:39:08;102456.63;;;8.56;68.78
83027;BME280;72842;56.038;12.706;2024-01-30T10:41:43;102451.28;;;8.56;68.85
83027;BME280;72842;56.038;12.706;2024-01-30T10:44:09;102452.22;;;8.55;69.13
83027;BME280;72842;56.038;12.706;2024-01-30T10:46:37;102447.66;;;8.57;69.12
83027;BME280;72842;56.038;12.706;2024-01-30T10:49:04;102442.34;;;8.57;68.65
83027;BME280;72842;56.038;12.706;2024-01-30T10:51:31;102444.06;;;8.58;69.02
83027;BME280;72842;56.038;12.706;2024-01-30T10:53:57;102437.00;;;8.57;69.02
83027;BME280;72842;56.038;12.706;2024-01-30T10:56:23;102423.72;;;8.56;69.05
83027;BME280;72842;56.038;12.706;2024-01-30T10:58:51;102384.34;;;8.41;69.23
83027;BME280;72842;56.038;12.706;2024-01-30T11:01:22;102415.03;;;8.51;69.12
83027;BME280;72842;56.038;12.706;2024-01-30T11:03:52;102431.66;;;8.57;68.72
83027;BME280;72842;56.038;12.706;2024-01-30T11:06:18;102422.88;;;8.55;69.32
83027;BME280;72842;56.038;12.706;2024-01-30T11:08:46;102405.25;;;8.51;68.98
83027;BME280;72842;56.038;12.706;2024-01-30T11:11:25;102403.31;;;8.55;69.28
83027;BME280;72842;56.038;12.706;2024-01-30T11:13:50;102408.66;;;8.55;69.36
83027;BME280;72842;56.038;12.706;2024-01-30T11:16:15;102398.00;;;8.55;69.12
83027;BME280;72842;56.038;12.706;2024-01-30T11:18:41;102386.56;;;8.51;69.47
83027;BME280;72842;56.038;12.706;2024-01-30T11:21:06;102379.34;;;8.53;69.66
83027;BME280;72842;56.038;12.706;2024-01-30T11:23:33;102372.22;;;8.54;69.26
83027;BME280;72842;56.038;12.706;2024-01-30T11:25:59;102369.63;;;8.52;69.32
83027;BME280;72842;56.038;12.706;2024-01-30T11:28:32;102369.63;;;8.52;69.16
83027;BME280;72842;56.038;12.706;2024-01-30T11:31:05;102377.53;;;8.54;69.10
83027;BME280;72842;56.038;12.706;2024-01-30T11:33:32;102372.22;;;8.54;69.36
83027;BME280;72842;56.038;12.706;2024-01-30T11:35:59;102359.72;;;8.54;69.64
83027;BME280;72842;56.038;12.706;2024-01-30T11:38:26;102373.97;;;8.55;69.89
83027;BME280;72842;56.038;12.706;2024-01-30T11:40:55;102367.81;;;8.53;69.73
83027;BME280;72842;56.038;12.706;2024-01-30T11:43:23;102372.22;;;8.54;69.63
83027;BME280;72842;56.038;12.706;2024-01-30T11:45:49;102366.00;;;8.53;69.54
83027;BME280;72842;56.038;12.706;2024-01-30T11:48:14;102364.19;;;8.54;69.92
83027;BME280;72842;56.038;12.706;2024-01-30T11:50:40;102350.16;;;8.50;70.19
83027;BME280;72842;56.038;12.706;2024-01-30T11:53:06;102351.88;;;8.51;69.71
83027;BME280;72842;56.038;12.706;2024-01-30T11:55:32;102360.66;;;8.53;70.16
83027;BME280;72842;56.038;12.706;2024-01-30T11:57:58;102365.16;;;8.53;70.12
83027;BME280;72842;56.038;12.706;2024-01-30T12:00:24;102342.00;;;8.53;69.93
83027;BME280;72842;56.038;12.706;2024-01-30T12:02:50;102334.00;;;8.53;69.76
83027;BME280;72842;56.038;12.706;2024-01-30T12:05:16;102341.13;;;8.53;69.91
83027;BME280;72842;56.038;12.706;2024-01-30T12:07:45;102335.88;;;8.51;69.67
83027;BME280;72842;56.038;12.706;2024-01-30T12:10:13;102319.88;;;8.51;70.31
83027;BME280;72842;56.038;12.706;2024-01-30T12:12:41;102303.00;;;8.51;70.32
83027;BME280;72842;56.038;12.706;2024-01-30T12:15:07;102310.13;;;8.50;70.09
83027;BME280;72842;56.038;12.706;2024-01-30T12:17:34;102308.44;;;8.48;69.87
83027;BME280;72842;56.038;12.706;2024-01-30T12:20:11;102297.72;;;8.49;70.25
83027;BME280;72842;56.038;12.706;2024-01-30T12:22:41;102296.22;;;8.42;70.30
83027;BME280;72842;56.038;12.706;2024-01-30T12:25:10;102297.72;;;8.49;70.00
83027;BME280;72842;56.038;12.706;2024-01-30T12:27:37;102293.31;;;8.48;69.68
83027;BME280;72842;56.038;12.706;2024-01-30T12:30:10;102295.97;;;8.48;70.19
83027;BME280;72842;56.038;12.706;2024-01-30T12:32:37;102309.31;;;8.48;69.87
83027;BME280;72842;56.038;12.706;2024-01-30T12:35:03;102318.25;;;8.47;69.93
83027;BME280;72842;56.038;12.706;2024-01-30T12:37:30;102315.59;;;8.47;69.96
83027;BME280;72842;56.038;12.706;2024-01-30T12:39:56;102317.31;;;8.48;70.04
83027;BME280;72842;56.038;12.706;2024-01-30T12:42:21;102316.41;;;8.49;70.42
83027;BME280;72842;56.038;12.706;2024-01-30T12:44:48;102305.72;;;8.49;70.17